createdAt,value
2022-09-14T00:01:33.334Z,100444.16
2022-09-14T00:04:06.579Z,100442.50
2022-09-14T00:06:34.757Z,100428.72
2022-09-14T00:09:02.583Z,100432.63
2022-09-14T00:11:32.015Z,100430.88
2022-09-14T00:14:00.772Z,100434.34
2022-09-14T00:16:30.472Z,100432.88
2022-09-14T00:19:06.484Z,100436.59
2022-09-14T00:21:44.317Z,100438.94
2022-09-14T00:24:11.993Z,100440.59
2022-09-14T00:26:38.891Z,100442.31
2022-09-14T00:29:06.369Z,100445.25
2022-09-14T00:31:35.816Z,100440.31
2022-09-14T00:34:04.203Z,100447.22
2022-09-14T00:36:32.711Z,100457.25
2022-09-14T00:39:00.965Z,100452.69
2022-09-14T00:41:32.066Z,100455.94
2022-09-14T00:44:06.285Z,100448.41
2022-09-14T00:46:37.901Z,100459.72
2022-09-14T00:49:22.994Z,100454.50
2022-09-14T00:51:52.919Z,100456.25
2022-09-14T00:54:20.577Z,100456.03
2022-09-14T00:56:48.918Z,100455.03
2022-09-14T00:59:21.184Z,100453.44
2022-09-14T01:01:49.389Z,100453.16
2022-09-14T01:04:17.553Z,100443.41
2022-09-14T01:07:00.623Z,100446.66
2022-09-14T01:09:57.618Z,100446.13
2022-09-14T01:12:48.449Z,100449.28
2022-09-14T01:15:19.135Z,100448.75
2022-09-14T01:18:14.605Z,100452.53
2022-09-14T01:21:07.481Z,100451.88
2022-09-14T01:23:53.056Z,100447.44
2022-09-14T01:26:40.060Z,100451.47
2022-09-14T01:29:16.156Z,100444.38
2022-09-14T01:31:49.147Z,100443.06
2022-09-14T01:34:36.938Z,100440.56
2022-09-14T01:37:13.360Z,100450.19
2022-09-14T01:39:55.096Z,100449.47
2022-09-14T01:42:25.590Z,100456.09
2022-09-14T01:44:57.364Z,100451.78
2022-09-14T01:47:39.424Z,100453.88
2022-09-14T01:50:20.523Z,100458.31
2022-09-14T01:52:55.871Z,100458.38
2022-09-14T01:55:32.984Z,100453.50
2022-09-14T01:58:14.681Z,100454.28
2022-09-14T02:00:46.149Z,100463.78
2022-09-14T02:03:18.924Z,100457.63
2022-09-14T02:06:02.934Z,100459.06
2022-09-14T02:08:31.153Z,100454.25
2022-09-14T02:10:59.190Z,100461.19
2022-09-14T02:13:27.058Z,100462.34
2022-09-14T02:15:54.158Z,100461.19
2022-09-14T02:18:22.025Z,100464.47
2022-09-14T02:21:17.602Z,100462.63
2022-09-14T02:23:44.869Z,100467.84
2022-09-14T02:26:11.989Z,100466.69
2022-09-14T02:28:39.056Z,100467.25
2022-09-14T02:31:54.651Z,100467.56
2022-09-14T02:34:32.327Z,100462.72
2022-09-14T02:37:09.867Z,100468.06
2022-09-14T02:40:34.094Z,100460.78
2022-09-14T02:43:27.379Z,100459.72
2022-09-14T02:46:13.534Z,100455.41
2022-09-14T02:49:04.882Z,100453.59
2022-09-14T02:51:38.246Z,100455.38
2022-09-14T02:54:14.802Z,100449.75
2022-09-14T02:56:42.308Z,100455.00
2022-09-14T02:59:11.308Z,100457.16
2022-09-14T03:01:38.635Z,100451.94
2022-09-14T03:04:05.552Z,100452.78
2022-09-14T03:06:32.852Z,100454.47
2022-09-14T03:09:00.177Z,100453.28
2022-09-14T03:11:27.018Z,100455.56
2022-09-14T03:13:53.992Z,100455.03
2022-09-14T03:16:20.946Z,100448.50
2022-09-14T03:18:48.013Z,100452.56
2022-09-14T03:21:17.517Z,100447.75
2022-09-14T03:23:50.544Z,100459.72
2022-09-14T03:26:20.296Z,100457.31
2022-09-14T03:28:55.561Z,100463.84
2022-09-14T03:31:23.494Z,100462.94
2022-09-14T03:33:55.331Z,100461.75
2022-09-14T03:36:22.971Z,100467.16
2022-09-14T03:38:52.196Z,100470.91
2022-09-14T03:41:20.484Z,100487.47
2022-09-14T03:43:47.598Z,100483.66
2022-09-14T03:46:17.024Z,100484.25
2022-09-14T03:48:44.554Z,100481.63
2022-09-14T03:51:13.431Z,100490.81
2022-09-14T03:53:41.438Z,100496.38
2022-09-14T03:56:10.707Z,100494.81
2022-09-14T03:58:38.363Z,100497.00
2022-09-14T04:01:07.587Z,100499.00
2022-09-14T04:03:34.830Z,100494.97
2022-09-14T04:06:05.458Z,100490.38
2022-09-14T04:08:37.370Z,100490.06
2022-09-14T04:11:19.090Z,100499.38
2022-09-14T04:13:46.871Z,100503.22
2022-09-14T04:16:15.131Z,100506.34
2022-09-14T04:18:42.354Z,100504.13
2022-09-14T04:21:19.151Z,100502.25
2022-09-14T04:26:34.558Z,100514.50
2022-09-14T04:29:01.471Z,100504.69
2022-09-14T04:31:28.915Z,100510.78
2022-09-14T04:33:57.277Z,100503.75
2022-09-14T04:36:28.680Z,100513.88
2022-09-14T04:38:58.215Z,100517.75
2022-09-14T04:41:26.297Z,100519.56
2022-09-14T04:43:54.189Z,100520.06
2022-09-14T04:46:24.318Z,100524.53
2022-09-14T04:48:51.639Z,100520.84
2022-09-14T04:51:21.343Z,100512.13
2022-09-14T04:53:51.098Z,100513.34
2022-09-14T04:56:19.857Z,100517.41
2022-09-14T04:58:51.633Z,100512.38
2022-09-14T05:01:24.407Z,100515.38
2022-09-14T05:03:52.615Z,100523.28
2022-09-14T05:06:22.814Z,100513.41
2022-09-14T05:08:51.219Z,100512.78
2022-09-14T05:11:21.604Z,100507.31
2022-09-14T05:13:50.222Z,100513.63
2022-09-14T05:16:22.969Z,100519.59
2022-09-14T05:18:51.109Z,100518.44
2022-09-14T05:21:20.464Z,100520.06
2022-09-14T05:23:48.239Z,100525.41
2022-09-14T05:26:15.583Z,100512.41
2022-09-14T05:28:42.510Z,100526.66
2022-09-14T05:31:13.280Z,100531.28
2022-09-14T05:33:40.452Z,100524.38
2022-09-14T05:36:09.039Z,100524.25
2022-09-14T05:38:38.293Z,100522.59
2022-09-14T05:41:06.940Z,100525.16
2022-09-14T05:43:34.160Z,100538.28
2022-09-14T05:46:02.747Z,100527.66
2022-09-14T05:48:36.285Z,100528.16
2022-09-14T05:51:07.577Z,100535.25
2022-09-14T05:53:34.695Z,100531.19
2022-09-14T05:56:01.645Z,100542.41
2022-09-14T05:58:28.546Z,100537.78
2022-09-14T06:00:55.695Z,100536.78
2022-09-14T06:03:23.240Z,100539.38
2022-09-14T06:05:50.148Z,100552.69
2022-09-14T06:08:17.138Z,100538.03
2022-09-14T06:10:44.485Z,100541.06
2022-09-14T06:13:11.409Z,100538.34
2022-09-14T06:15:38.744Z,100541.78
2022-09-14T06:18:05.678Z,100543.88
2022-09-14T06:20:32.543Z,100535.53
2022-09-14T06:22:59.459Z,100549.88
2022-09-14T06:25:28.214Z,100549.56
2022-09-14T06:27:55.311Z,100540.22
2022-09-14T06:30:22.533Z,100539.47
2022-09-14T06:32:49.507Z,100553.31
2022-09-14T06:35:16.558Z,100538.38
2022-09-14T06:37:43.446Z,100547.91
2022-09-14T06:40:10.931Z,100548.53
2022-09-14T06:42:37.851Z,100551.34
2022-09-14T06:45:06.025Z,100550.47
2022-09-14T06:47:33.736Z,100548.00
2022-09-14T06:50:00.742Z,100547.75
2022-09-14T06:52:30.556Z,100551.34
2022-09-14T06:55:00.522Z,100554.56
2022-09-14T06:57:27.382Z,100558.28
2022-09-14T06:59:54.275Z,100547.78
2022-09-14T07:02:21.387Z,100558.50
2022-09-14T07:04:48.286Z,100546.41
2022-09-14T07:07:16.497Z,100553.03
2022-09-14T07:09:43.412Z,100547.13
2022-09-14T07:12:11.739Z,100553.81
2022-09-14T07:14:38.724Z,100547.16
2022-09-14T07:17:06.139Z,100558.88
2022-09-14T07:19:33.187Z,100553.38
2022-09-14T07:22:00.987Z,100552.22
2022-09-14T07:24:27.982Z,100549.47
2022-09-14T07:26:54.902Z,100543.00
2022-09-14T07:29:22.102Z,100553.75
2022-09-14T07:31:51.511Z,100545.03
2022-09-14T07:34:18.767Z,100550.63
2022-09-14T07:36:46.261Z,100555.84
2022-09-14T07:39:17.713Z,100551.59
2022-09-14T07:41:44.948Z,100558.03
2022-09-14T07:44:15.254Z,100549.38
2022-09-14T07:46:44.067Z,100562.66
2022-09-14T07:49:12.139Z,100555.69
2022-09-14T07:51:40.327Z,100555.44
2022-09-14T07:54:08.997Z,100556.53
2022-09-14T07:56:35.917Z,100547.97
2022-09-14T07:59:30.836Z,100544.38
2022-09-14T08:01:51.364Z,100557.41
2022-09-14T08:04:18.297Z,100549.28
2022-09-14T08:06:45.243Z,100552.53
2022-09-14T08:09:12.390Z,100547.56
2022-09-14T08:11:39.315Z,100550.25
2022-09-14T08:14:12.043Z,100547.00
2022-09-14T08:16:40.870Z,100543.38
2022-09-14T08:19:21.115Z,100544.03
2022-09-14T08:21:48.318Z,100545.13
2022-09-14T08:24:18.254Z,100542.44
2022-09-14T08:26:46.136Z,100545.00
2022-09-14T08:29:14.535Z,100546.88
2022-09-14T08:31:42.663Z,100549.59
2022-09-14T08:34:09.629Z,100550.97
2022-09-14T08:36:38.603Z,100546.03
2022-09-14T08:39:09.302Z,100551.09
2022-09-14T08:41:45.075Z,100541.16
2022-09-14T08:44:11.829Z,100545.97
2022-09-14T08:46:50.452Z,100534.88
2022-09-14T08:49:26.239Z,100544.66
2022-09-14T08:51:53.185Z,100541.16
2022-09-14T08:54:20.095Z,100520.38
2022-09-14T08:56:54.865Z,100519.72
2022-09-14T08:59:40.208Z,100520.38
2022-09-14T09:02:29.140Z,100527.50
2022-09-14T09:05:07.702Z,100523.63
2022-09-14T09:08:06.913Z,100516.06
2022-09-14T09:10:35.520Z,100515.00
2022-09-14T09:13:05.798Z,100515.28
2022-09-14T09:15:51.783Z,100519.09
2022-09-14T09:18:41.095Z,100513.84
2022-09-14T09:21:40.361Z,100517.16
2022-09-14T09:24:26.185Z,100524.81
2022-09-14T09:26:53.337Z,100523.28
2022-09-14T09:29:20.279Z,100515.06
2022-09-14T09:32:08.961Z,100501.28
2022-09-14T09:34:38.878Z,100506.44
2022-09-14T09:37:16.979Z,100501.41
2022-09-14T09:39:44.729Z,100503.22
2022-09-14T09:42:22.205Z,100497.75
2022-09-14T09:45:01.504Z,100492.09
2022-09-14T09:47:43.592Z,100490.47
2022-09-14T09:50:13.757Z,100482.66
2022-09-14T09:52:54.004Z,100482.69
2022-09-14T09:55:23.788Z,100497.81
2022-09-14T09:57:50.654Z,100493.75
2022-09-14T10:00:29.948Z,100493.75
2022-09-14T10:03:01.559Z,100486.69
2022-09-14T10:05:32.364Z,100492.94
2022-09-14T10:08:09.336Z,100485.59
2022-09-14T10:10:39.313Z,100500.88
2022-09-14T10:13:38.175Z,100493.59
2022-09-14T10:16:18.042Z,100499.88
2022-09-14T10:18:51.038Z,100482.78
2022-09-14T10:21:23.008Z,100484.88
2022-09-14T10:24:21.656Z,100489.75
2022-09-14T10:26:48.651Z,100493.22
2022-09-14T10:29:27.221Z,100484.06
2022-09-14T10:32:02.229Z,100495.00
2022-09-14T10:34:29.427Z,100491.88
2022-09-14T10:37:54.286Z,100486.75
2022-09-14T10:40:32.405Z,100483.50
2022-09-14T10:43:22.503Z,100484.06
2022-09-14T10:45:59.259Z,100481.78
2022-09-14T10:48:34.883Z,100485.16
2022-09-14T10:51:20.433Z,100463.25
2022-09-14T10:53:56.703Z,100472.94
2022-09-14T10:56:35.033Z,100470.00
2022-09-14T10:59:01.836Z,100470.75
2022-09-14T11:01:28.712Z,100469.97
2022-09-14T11:04:20.263Z,100466.66
2022-09-14T11:06:59.013Z,100454.75
2022-09-14T11:09:43.891Z,100465.53
2022-09-14T11:12:42.592Z,100454.97
2022-09-14T11:15:24.297Z,100446.56
2022-09-14T11:17:51.214Z,100456.69
2022-09-14T11:20:26.262Z,100454.72
2022-09-14T11:23:11.323Z,100454.78
2022-09-14T11:25:56.909Z,100467.59
2022-09-14T11:28:45.022Z,100458.84
2022-09-14T11:31:21.334Z,100451.28
2022-09-14T11:34:11.226Z,100457.09
2022-09-14T11:36:44.777Z,100444.75
2022-09-14T11:39:21.334Z,100443.19
2022-09-14T11:42:04.244Z,100452.84
2022-09-14T11:44:37.941Z,100436.78
2022-09-14T11:47:14.070Z,100434.44
2022-09-14T11:49:47.655Z,100444.16
2022-09-14T11:52:21.035Z,100427.22
2022-09-14T11:54:50.380Z,100430.28
2022-09-14T11:57:27.812Z,100424.19
2022-09-14T12:00:00.300Z,100417.91
2022-09-14T12:02:27.757Z,100404.78
2022-09-14T12:05:07.261Z,100415.25
2022-09-14T12:07:40.276Z,100401.47
2022-09-14T12:10:16.800Z,100406.94
2022-09-14T12:12:55.812Z,100395.16
2022-09-14T12:15:26.225Z,100397.56
2022-09-14T12:18:14.950Z,100383.03
2022-09-14T12:21:02.867Z,100383.75
2022-09-14T12:23:29.746Z,100375.25
2022-09-14T12:26:05.910Z,100383.53
2022-09-14T12:28:35.657Z,100380.00
2022-09-14T12:31:05.556Z,100376.72
2022-09-14T12:33:32.463Z,100374.47
2022-09-14T12:36:03.042Z,100373.56
2022-09-14T12:38:29.922Z,100365.75
2022-09-14T12:41:01.995Z,100367.28
2022-09-14T12:43:35.007Z,100371.13
2022-09-14T12:46:30.414Z,100372.22
2022-09-14T12:49:16.820Z,100356.50
2022-09-14T12:51:49.027Z,100357.31
2022-09-14T12:54:26.493Z,100353.19
2022-09-14T12:57:00.980Z,100371.88
2022-09-14T12:59:42.746Z,100365.72
2022-09-14T13:02:12.681Z,100354.94
2022-09-14T13:04:42.066Z,100351.75
2022-09-14T13:07:18.263Z,100344.03
2022-09-14T13:09:57.229Z,100336.38
2022-09-14T13:12:34.961Z,100346.03
2022-09-14T13:15:25.697Z,100357.41
2022-09-14T13:18:16.918Z,100348.06
2022-09-14T13:21:12.206Z,100339.88
2022-09-14T13:23:42.094Z,100338.66
2022-09-14T13:26:17.072Z,100332.19
2022-09-14T13:28:46.860Z,100332.72
2022-09-14T13:31:18.955Z,100331.72
2022-09-14T13:33:52.182Z,100335.66
2022-09-14T13:36:26.026Z,100330.59
2022-09-14T13:38:54.405Z,100334.28
2022-09-14T13:41:23.491Z,100329.91
2022-09-14T13:43:54.464Z,100334.63
2022-09-14T13:46:26.509Z,100343.28
2022-09-14T13:48:53.798Z,100330.75
2022-09-14T13:51:27.263Z,100322.78
2022-09-14T13:53:57.499Z,100329.69
2022-09-14T13:56:31.321Z,100330.63
2022-09-14T13:59:20.676Z,100314.00
2022-09-14T14:01:59.649Z,100320.50
2022-09-14T14:04:34.940Z,100332.19
2022-09-14T14:07:07.046Z,100335.25
2022-09-14T14:09:45.242Z,100330.53
2022-09-14T14:12:23.049Z,100320.00
2022-09-14T14:14:58.636Z,100319.06
2022-09-14T14:17:28.502Z,100328.09
2022-09-14T14:20:00.966Z,100332.53
2022-09-14T14:22:31.738Z,100333.66
2022-09-14T14:25:14.645Z,100339.16
2022-09-14T14:27:47.827Z,100350.44
2022-09-14T14:30:18.277Z,100343.50
2022-09-14T14:32:51.074Z,100350.56
2022-09-14T14:35:22.888Z,100347.00
2022-09-14T14:37:50.333Z,100343.06
2022-09-14T14:40:18.280Z,100347.88
2022-09-14T14:42:46.081Z,100354.28
2022-09-14T14:45:21.420Z,100355.47
2022-09-14T14:47:50.698Z,100365.31
2022-09-14T14:50:22.104Z,100357.34
2022-09-14T14:52:50.369Z,100360.72
2022-09-14T14:55:17.850Z,100360.25
2022-09-14T14:57:44.730Z,100356.59
2022-09-14T15:00:18.007Z,100354.53
2022-09-14T15:02:45.227Z,100354.81
2022-09-14T15:05:13.088Z,100352.28
2022-09-14T15:07:40.663Z,100358.94
2022-09-14T15:10:09.736Z,100355.78
2022-09-14T15:12:36.647Z,100352.84
2022-09-14T15:15:03.897Z,100354.31
2022-09-14T15:17:30.868Z,100357.56
2022-09-14T15:19:57.777Z,100349.97
2022-09-14T15:22:25.313Z,100348.66
2022-09-14T15:24:52.326Z,100349.88
2022-09-14T15:27:19.218Z,100351.69
2022-09-14T15:29:46.193Z,100341.19
2022-09-14T15:32:13.196Z,100345.25
2022-09-14T15:34:41.098Z,100346.19
2022-09-14T15:37:09.760Z,100346.81
2022-09-14T15:39:36.912Z,100348.72
2022-09-14T15:42:04.111Z,100356.06
2022-09-14T15:44:32.980Z,100344.91
2022-09-14T15:46:59.919Z,100347.78
2022-09-14T15:49:26.856Z,100355.09
2022-09-14T15:51:56.249Z,100355.31
2022-09-14T15:54:25.197Z,100348.34
2022-09-14T15:56:54.950Z,100338.28
2022-09-14T15:59:22.763Z,100335.97
2022-09-14T16:01:49.939Z,100339.16
2022-09-14T16:04:17.697Z,100340.03
2022-09-14T16:06:45.207Z,100331.50
2022-09-14T16:09:14.234Z,100339.00
2022-09-14T16:11:41.559Z,100331.81
2022-09-14T16:14:10.620Z,100328.28
2022-09-14T16:16:38.821Z,100330.53
2022-09-14T16:19:08.855Z,100336.03
2022-09-14T16:21:36.713Z,100330.97
2022-09-14T16:24:07.324Z,100331.47
2022-09-14T16:26:36.329Z,100339.25
2022-09-14T16:29:04.743Z,100341.41
2022-09-14T16:31:34.730Z,100352.56
2022-09-14T16:34:04.959Z,100354.06
2022-09-14T16:36:35.083Z,100350.22
2022-09-14T16:39:04.584Z,100342.91
2022-09-14T16:41:32.431Z,100342.28
2022-09-14T16:44:01.636Z,100342.59
2022-09-14T16:46:30.367Z,100350.44
2022-09-14T16:49:00.689Z,100362.03
2022-09-14T16:51:29.831Z,100353.47
2022-09-14T16:53:58.070Z,100354.00
2022-09-14T16:56:27.900Z,100349.88
2022-09-14T16:58:56.073Z,100355.34
2022-09-14T17:01:24.678Z,100359.22
2022-09-14T17:03:55.324Z,100359.84
2022-09-14T17:06:26.683Z,100368.47
2022-09-14T17:08:57.772Z,100364.66
2022-09-14T17:11:24.653Z,100370.31
2022-09-14T17:13:52.520Z,100370.38
2022-09-14T17:16:21.405Z,100366.69
2022-09-14T17:18:50.657Z,100361.50
2022-09-14T17:21:23.528Z,100371.63
2022-09-14T17:23:50.552Z,100372.06
2022-09-14T17:26:19.396Z,100370.94
2022-09-14T17:28:49.586Z,100380.00
2022-09-14T17:31:21.405Z,100376.47
2022-09-14T17:33:49.296Z,100383.09
2022-09-14T17:36:17.103Z,100376.72
2022-09-14T17:38:44.740Z,100370.88
2022-09-14T17:41:22.474Z,100384.34
2022-09-14T17:43:54.309Z,100385.88
2022-09-14T17:46:24.659Z,100379.63
2022-09-14T17:48:52.280Z,100379.06
2022-09-14T17:51:21.722Z,100384.25
2022-09-14T17:53:51.150Z,100385.25
2022-09-14T17:56:20.729Z,100380.56
2022-09-14T17:58:49.516Z,100375.50
2022-09-14T18:01:19.612Z,100377.63
2022-09-14T18:03:52.100Z,100370.22
2022-09-14T18:06:19.933Z,100370.81
2022-09-14T18:08:47.302Z,100373.69
2022-09-14T18:11:17.117Z,100373.28
2022-09-14T18:13:48.046Z,100376.38
2022-09-14T18:16:16.390Z,100383.06
2022-09-14T18:18:43.750Z,100380.13
2022-09-14T18:21:11.511Z,100381.59
2022-09-14T18:23:38.354Z,100382.94
2022-09-14T18:26:07.071Z,100387.13
2022-09-14T18:28:35.626Z,100382.13
2022-09-14T18:31:10.411Z,100380.75
2022-09-14T18:33:37.769Z,100382.56
2022-09-14T18:36:06.290Z,100371.91
2022-09-14T18:38:33.453Z,100372.84
2022-09-14T18:41:07.891Z,100363.66
2022-09-14T18:43:35.480Z,100350.56
2022-09-14T18:46:07.312Z,100349.00
2022-09-14T18:48:35.317Z,100347.84
2022-09-14T18:51:05.006Z,100341.63
2022-09-14T18:53:32.346Z,100346.38
2022-09-14T18:56:03.557Z,100358.38
2022-09-14T18:58:35.448Z,100356.09
2022-09-14T19:01:03.417Z,100361.75
2022-09-14T19:03:31.650Z,100364.44
2022-09-14T19:06:03.783Z,100367.81
2022-09-14T19:08:30.656Z,100360.13
2022-09-14T19:10:58.330Z,100358.56
2022-09-14T19:13:25.253Z,100355.28
2022-09-14T19:15:52.202Z,100358.06
2022-09-14T19:18:19.145Z,100362.00
2022-09-14T19:21:06.036Z,100352.16
2022-09-14T19:23:34.258Z,100353.75
2022-09-14T19:26:06.351Z,100351.72
2022-09-14T19:28:34.789Z,100343.69
2022-09-14T19:31:09.800Z,100344.94
2022-09-14T19:33:38.011Z,100345.63
2022-09-14T19:36:10.007Z,100350.47
2022-09-14T19:38:37.574Z,100360.94
2022-09-14T19:41:05.900Z,100363.63
2022-09-14T19:43:34.164Z,100366.13
2022-09-14T19:46:03.509Z,100362.19
2022-09-14T19:48:30.708Z,100358.41
2022-09-14T19:51:02.070Z,100354.41
2022-09-14T19:53:30.923Z,100353.84
2022-09-14T19:55:58.358Z,100363.41
2022-09-14T19:58:28.847Z,100351.81
2022-09-14T20:00:56.980Z,100356.78
2022-09-14T20:03:24.605Z,100350.63
2022-09-14T20:06:11.493Z,100350.63
2022-09-14T20:08:38.480Z,100354.34
2022-09-14T20:11:11.091Z,100347.78
2022-09-14T20:13:39.115Z,100347.53
2022-09-14T20:16:36.908Z,100346.78
2022-09-14T20:19:13.151Z,100343.78
2022-09-14T20:21:41.544Z,100338.88
2022-09-14T20:24:16.118Z,100341.31
2022-09-14T20:26:49.511Z,100336.31
2022-09-14T20:29:18.117Z,100332.50
2022-09-14T20:31:45.985Z,100334.22
2022-09-14T20:34:14.369Z,100335.41
2022-09-14T20:36:41.451Z,100337.06
2022-09-14T20:39:10.670Z,100345.09
2022-09-14T20:41:37.713Z,100350.47
2022-09-14T20:44:05.282Z,100335.97
2022-09-14T20:46:35.321Z,100342.22
2022-09-14T20:49:04.522Z,100328.34
2022-09-14T20:51:31.913Z,100319.03
2022-09-14T20:53:58.807Z,100323.94
2022-09-14T20:56:28.284Z,100349.75
2022-09-14T20:59:12.066Z,100353.63
2022-09-14T21:01:46.583Z,100351.16
2022-09-14T21:04:16.611Z,100350.69
2022-09-14T21:06:46.669Z,100359.63
2022-09-14T21:09:15.150Z,100356.00
2022-09-14T21:11:42.713Z,100353.91
2022-09-14T21:14:09.632Z,100342.25
2022-09-14T21:16:42.805Z,100344.00
2022-09-14T21:19:20.381Z,100333.59
2022-09-14T21:21:48.743Z,100341.28
2022-09-14T21:24:17.134Z,100331.66
2022-09-14T21:26:44.447Z,100333.56
2022-09-14T21:29:17.587Z,100333.00
2022-09-14T21:31:45.107Z,100328.13
2022-09-14T21:34:12.808Z,100323.50
2022-09-14T21:36:42.981Z,100323.13
2022-09-14T21:39:16.749Z,100319.47
2022-09-14T21:41:44.974Z,100318.22
2022-09-14T21:44:13.424Z,100310.38
2022-09-14T21:46:40.667Z,100304.69
2022-09-14T21:49:21.589Z,100297.00
2022-09-14T21:51:48.904Z,100298.66
2022-09-14T21:54:16.018Z,100289.63
2022-09-14T21:56:44.549Z,100295.59
2022-09-14T21:59:18.562Z,100286.78
2022-09-14T22:01:46.706Z,100297.34
2022-09-14T22:04:31.475Z,100291.91
2022-09-14T22:06:59.397Z,100298.66
2022-09-14T22:09:28.945Z,100302.72
2022-09-14T22:11:57.017Z,100295.06
2022-09-14T22:14:27.027Z,100294.91
2022-09-14T22:16:54.520Z,100291.88
2022-09-14T22:19:27.279Z,100290.44
2022-09-14T22:21:55.160Z,100296.28
2022-09-14T22:24:37.179Z,100288.50
2022-09-14T22:27:07.760Z,100300.09
2022-09-14T22:29:34.768Z,100292.75
2022-09-14T22:32:01.866Z,100300.75
2022-09-14T22:34:29.036Z,100280.59
2022-09-14T22:36:56.022Z,100284.69
2022-09-14T22:39:23.018Z,100282.38
2022-09-14T22:41:50.384Z,100276.63
2022-09-14T22:44:17.307Z,100270.84
2022-09-14T22:46:44.430Z,100270.75
2022-09-14T22:49:11.447Z,100268.22
2022-09-14T22:51:38.427Z,100266.47
2022-09-14T22:54:05.647Z,100267.56
2022-09-14T22:56:35.435Z,100264.59
2022-09-14T22:59:09.293Z,100263.53
2022-09-14T23:01:39.925Z,100256.28
2022-09-14T23:04:10.469Z,100252.03
2022-09-14T23:06:47.638Z,100259.75
2022-09-14T23:09:21.100Z,100256.50
2022-09-14T23:11:48.476Z,100261.63
2022-09-14T23:14:16.589Z,100264.00
2022-09-14T23:16:45.399Z,100261.97
2022-09-14T23:19:17.806Z,100268.63
2022-09-14T23:21:45.075Z,100258.34
2022-09-14T23:29:26.071Z,100249.38
2022-09-14T23:32:36.080Z,100243.53
2022-09-14T23:35:23.154Z,100247.00
2022-09-14T23:38:54.709Z,100245.75
2022-09-14T23:42:06.341Z,100237.81
2022-09-14T23:45:05.821Z,100242.19
2022-09-14T23:48:29.945Z,100241.94
2022-09-14T23:54:51.493Z,100233.16
2022-09-14T23:58:10.940Z,100222.56
